createdAt,value
2022-11-16T00:00:42.266Z,92623.47
2022-11-16T00:01:43.918Z,92624.97
2022-11-16T00:02:45.451Z,92628.63
2022-11-16T00:03:47.191Z,92629.25
2022-11-16T00:04:48.636Z,92630.25
2022-11-16T00:05:55.878Z,92629.66
2022-11-16T00:06:57.341Z,92631.47
2022-11-16T00:07:58.887Z,92631.28
2022-11-16T00:09:02.559Z,92630.47
2022-11-16T00:10:04.730Z,92628.41
2022-11-16T00:11:07.854Z,92624.78
2022-11-16T00:12:09.272Z,92620.34
2022-11-16T00:13:10.688Z,92625.19
2022-11-16T00:14:12.153Z,92623.56
2022-11-16T00:15:15.026Z,92626.03
2022-11-16T00:16:17.942Z,92626.59
2022-11-16T00:17:19.391Z,92616.53
2022-11-16T00:18:20.818Z,92618.53
2022-11-16T00:19:22.888Z,92616.91
2022-11-16T00:20:24.351Z,92616.31
2022-11-16T00:21:26.559Z,92614.31
2022-11-16T00:22:27.957Z,92617.53
2022-11-16T00:23:29.415Z,92612.50
2022-11-16T00:24:30.818Z,92608.66
2022-11-16T00:25:33.821Z,92610.28
2022-11-16T00:26:35.227Z,92614.50
2022-11-16T00:27:36.662Z,92613.28
2022-11-16T00:28:38.126Z,92616.53
2022-11-16T00:29:39.551Z,92609.06
2022-11-16T00:30:42.325Z,92606.63
2022-11-16T00:31:44.478Z,92611.06
2022-11-16T00:32:45.890Z,92616.91
2022-11-16T00:33:48.324Z,92600.38
2022-11-16T00:34:49.776Z,92610.66
2022-11-16T00:35:51.218Z,92612.47
2022-11-16T00:36:52.719Z,92610.56
2022-11-16T00:37:54.188Z,92614.34
2022-11-16T00:38:55.763Z,92617.56
2022-11-16T00:39:57.204Z,92617.31
2022-11-16T00:40:58.859Z,92622.34
2022-11-16T00:42:00.352Z,92620.91
2022-11-16T00:43:01.790Z,92617.28
2022-11-16T00:44:03.301Z,92620.75
2022-11-16T00:45:05.314Z,92618.09
2022-11-16T00:46:09.421Z,92623.50
2022-11-16T00:47:10.839Z,92633.19
2022-11-16T00:48:12.811Z,92629.31
2022-11-16T00:49:14.842Z,92634.38
2022-11-16T00:50:16.706Z,92636.81
2022-11-16T00:51:18.196Z,92629.31
2022-11-16T00:52:19.642Z,92628.88
2022-11-16T00:53:21.404Z,92631.69
2022-11-16T00:54:22.930Z,92632.88
2022-11-16T00:55:24.388Z,92632.03
2022-11-16T00:56:25.884Z,92634.47
2022-11-16T00:57:27.284Z,92630.91
2022-11-16T00:58:28.728Z,92626.09
2022-11-16T00:59:30.188Z,92624.88
2022-11-16T01:00:31.694Z,92634.78
2022-11-16T01:01:34.598Z,92631.38
2022-11-16T01:02:36.056Z,92634.81
2022-11-16T01:03:38.252Z,92624.16
2022-11-16T01:04:39.677Z,92624.63
2022-11-16T01:05:41.197Z,92626.00
2022-11-16T01:06:42.692Z,92630.50
2022-11-16T01:07:44.156Z,92632.13
2022-11-16T01:08:46.192Z,92625.00
2022-11-16T01:09:47.653Z,92632.16
2022-11-16T01:10:49.055Z,92632.16
2022-11-16T01:11:50.551Z,92630.50
2022-11-16T01:12:52.899Z,92629.19
2022-11-16T01:13:55.368Z,92630.59
2022-11-16T01:14:56.791Z,92628.59
2022-11-16T01:15:58.308Z,92623.00
2022-11-16T01:17:01.122Z,92625.56
2022-11-16T01:18:02.562Z,92625.22
2022-11-16T01:19:05.000Z,92619.16
2022-11-16T01:20:10.515Z,92610.91
2022-11-16T01:21:11.954Z,92619.41
2022-11-16T01:22:13.444Z,92618.97
2022-11-16T01:23:14.902Z,92626.28
2022-11-16T01:24:16.376Z,92613.75
2022-11-16T01:25:18.363Z,92611.72
2022-11-16T01:26:19.818Z,92614.97
2022-11-16T01:27:21.262Z,92618.19
2022-11-16T01:28:22.735Z,92615.19
2022-11-16T01:29:24.473Z,92612.34
2022-11-16T01:30:25.898Z,92613.47
2022-11-16T01:31:27.309Z,92611.00
2022-11-16T01:32:30.082Z,92613.28
2022-11-16T01:33:31.529Z,92605.31
2022-11-16T01:34:33.029Z,92604.69
2022-11-16T01:35:34.542Z,92604.06
2022-11-16T01:36:36.005Z,92612.72
2022-11-16T01:37:37.439Z,92614.53
2022-11-16T01:38:38.855Z,92605.22
2022-11-16T01:39:41.432Z,92599.91
2022-11-16T01:40:43.090Z,92602.34
2022-11-16T01:41:44.707Z,92595.03
2022-11-16T01:42:46.124Z,92601.50
2022-11-16T01:43:54.017Z,92600.94
2022-11-16T01:45:01.816Z,92589.81
2022-11-16T01:46:03.229Z,92594.63
2022-11-16T01:47:08.399Z,92588.56
2022-11-16T01:48:13.816Z,92590.22
2022-11-16T01:49:21.944Z,92582.38
2022-11-16T01:50:23.654Z,92585.38
2022-11-16T01:51:26.220Z,92584.16
2022-11-16T01:52:31.007Z,92578.91
2022-11-16T01:53:32.530Z,92573.47
2022-11-16T01:54:37.724Z,92580.72
2022-11-16T01:55:42.313Z,92578.19
2022-11-16T01:56:45.345Z,92579.38
2022-11-16T01:57:48.660Z,92579.97
2022-11-16T01:58:51.080Z,92581.56
2022-11-16T01:59:57.928Z,92582.59
2022-11-16T02:00:59.520Z,92580.69
2022-11-16T02:02:01.626Z,92579.97
2022-11-16T02:03:03.159Z,92580.00
2022-11-16T02:04:06.195Z,92577.75
2022-11-16T02:05:09.421Z,92572.22
2022-11-16T02:06:28.463Z,92579.41
2022-11-16T02:07:46.702Z,92575.66
2022-11-16T02:09:03.040Z,92576.44
2022-11-16T02:10:15.172Z,92575.78
2022-11-16T02:11:32.572Z,92577.75
2022-11-16T02:13:02.631Z,92575.66
2022-11-16T02:14:15.458Z,92576.50
2022-11-16T02:15:25.298Z,92567.53
2022-11-16T02:16:34.890Z,92572.50
2022-11-16T02:17:48.327Z,92577.72
2022-11-16T02:18:56.087Z,92573.25
2022-11-16T02:20:29.969Z,92572.84
2022-11-16T02:21:40.780Z,92572.63
2022-11-16T02:23:05.773Z,92573.22
2022-11-16T02:24:39.802Z,92574.66
2022-11-16T02:25:53.576Z,92574.28
2022-11-16T02:27:27.904Z,92568.84
2022-11-16T02:28:39.019Z,92568.97
2022-11-16T02:29:45.467Z,92577.03
2022-11-16T02:30:50.782Z,92579.03
2022-11-16T02:31:59.735Z,92577.34
2022-11-16T02:33:07.570Z,92576.34
2022-11-16T02:34:12.635Z,92579.97
2022-11-16T02:35:19.563Z,92575.28
2022-11-16T02:36:23.936Z,92576.19
2022-11-16T02:37:28.389Z,92575.16
2022-11-16T02:38:34.894Z,92573.56
2022-11-16T02:39:39.037Z,92576.06
2022-11-16T02:40:44.065Z,92574.19
2022-11-16T02:41:48.641Z,92574.13
2022-11-16T02:42:54.525Z,92567.75
2022-11-16T02:44:02.211Z,92571.81
2022-11-16T02:45:08.113Z,92571.06
2022-11-16T02:46:15.992Z,92571.63
2022-11-16T02:47:21.885Z,92570.81
2022-11-16T02:48:27.159Z,92570.09
2022-11-16T02:49:31.105Z,92576.31
2022-11-16T02:50:33.606Z,92576.75
2022-11-16T02:51:37.287Z,92566.41
2022-11-16T02:52:38.925Z,92573.09
2022-11-16T02:53:51.304Z,92576.38
2022-11-16T02:54:52.749Z,92573.81
2022-11-16T02:55:54.311Z,92572.59
2022-11-16T02:57:12.121Z,92579.00
2022-11-16T02:58:17.152Z,92582.56
2022-11-16T02:59:19.148Z,92581.34
2022-11-16T03:00:24.690Z,92584.28
2022-11-16T03:01:33.425Z,92590.13
2022-11-16T03:02:43.933Z,92586.31
2022-11-16T03:03:52.560Z,92587.72
2022-11-16T03:05:00.458Z,92590.97
2022-11-16T03:06:05.396Z,92587.53
2022-11-16T03:07:12.393Z,92594.03
2022-11-16T03:08:20.302Z,92599.16
2022-11-16T03:09:27.031Z,92593.66
2022-11-16T03:10:29.261Z,92594.63
2022-11-16T03:11:33.132Z,92600.59
2022-11-16T03:12:36.084Z,92597.97
2022-11-16T03:13:39.153Z,92598.59
2022-11-16T03:14:43.972Z,92605.88
2022-11-16T03:15:50.105Z,92599.44
2022-11-16T03:16:56.041Z,92601.66
2022-11-16T03:18:00.072Z,92604.06
2022-11-16T03:19:05.240Z,92605.69
2022-11-16T03:20:11.331Z,92604.31
2022-11-16T03:21:18.177Z,92605.53
2022-11-16T03:22:26.712Z,92604.78
2022-11-16T03:23:28.174Z,92605.81
2022-11-16T03:24:29.873Z,92604.81
2022-11-16T03:25:36.771Z,92602.38
2022-11-16T03:26:46.247Z,92604.81
2022-11-16T03:27:52.877Z,92603.91
2022-11-16T03:28:59.984Z,92605.22
2022-11-16T03:30:05.919Z,92606.06
2022-11-16T03:31:13.260Z,92607.34
2022-11-16T03:32:20.517Z,92600.25
2022-11-16T03:33:25.606Z,92608.53
2022-11-16T03:34:32.015Z,92607.53
2022-11-16T03:35:40.837Z,92614.03
2022-11-16T03:36:46.432Z,92612.41
2022-11-16T03:37:50.495Z,92611.56
2022-11-16T03:38:52.950Z,92612.16
2022-11-16T03:39:56.111Z,92610.53
2022-11-16T03:41:01.733Z,92614.13
2022-11-16T03:42:10.892Z,92612.28
2022-11-16T03:43:13.899Z,92609.91
2022-11-16T03:44:18.579Z,92610.94
2022-11-16T03:45:20.828Z,92621.78
2022-11-16T03:46:24.217Z,92615.97
2022-11-16T03:47:25.708Z,92612.38
2022-11-16T03:48:34.557Z,92618.59
2022-11-16T03:49:36.163Z,92615.97
2022-11-16T03:50:37.976Z,92607.13
2022-11-16T03:51:39.483Z,92607.56
2022-11-16T03:52:41.029Z,92615.44
2022-11-16T03:53:42.436Z,92611.59
2022-11-16T03:54:43.880Z,92606.13
2022-11-16T03:55:49.644Z,92608.16
2022-11-16T03:56:51.517Z,92605.91
2022-11-16T03:57:53.011Z,92608.53
2022-11-16T03:58:54.508Z,92601.25
2022-11-16T03:59:56.072Z,92602.69
2022-11-16T04:00:57.631Z,92600.06
2022-11-16T04:02:00.465Z,92593.53
2022-11-16T04:03:01.880Z,92596.44
2022-11-16T04:04:03.516Z,92588.75
2022-11-16T04:05:05.500Z,92588.75
2022-11-16T04:06:06.979Z,92584.06
2022-11-16T04:07:08.796Z,92583.69
2022-11-16T04:08:14.556Z,92575.38
2022-11-16T04:09:16.032Z,92579.41
2022-11-16T04:10:17.474Z,92581.66
2022-11-16T04:11:21.539Z,92575.66
2022-11-16T04:12:22.967Z,92575.03
2022-11-16T04:13:29.558Z,92572.63
2022-11-16T04:14:31.646Z,92565.25
2022-11-16T04:15:33.126Z,92562.78
2022-11-16T04:16:34.571Z,92561.41
2022-11-16T04:17:37.327Z,92566.25
2022-11-16T04:18:38.738Z,92560.59
2022-11-16T04:19:40.164Z,92568.44
2022-11-16T04:20:43.650Z,92566.75
2022-11-16T04:21:48.974Z,92568.09
2022-11-16T04:22:54.400Z,92566.84
2022-11-16T04:23:55.938Z,92564.34
2022-11-16T04:25:04.948Z,92579.56
2022-11-16T04:26:08.189Z,92576.38
2022-11-16T04:27:12.896Z,92582.19
2022-11-16T04:28:16.221Z,92586.88
2022-11-16T04:29:18.544Z,92582.72
2022-11-16T04:30:20.177Z,92587.22
2022-11-16T04:31:21.627Z,92592.91
2022-11-16T04:32:23.174Z,92593.31
2022-11-16T04:33:26.495Z,92596.75
2022-11-16T04:34:27.935Z,92596.94
2022-11-16T04:35:29.387Z,92597.41
2022-11-16T04:36:30.808Z,92595.16
2022-11-16T04:37:32.220Z,92596.59
2022-11-16T04:38:33.871Z,92601.72
2022-11-16T04:39:35.477Z,92597.38
2022-11-16T04:40:36.921Z,92599.81
2022-11-16T04:41:38.328Z,92598.41
2022-11-16T04:42:39.769Z,92592.72
2022-11-16T04:43:41.217Z,92587.69
2022-11-16T04:44:42.656Z,92596.44
2022-11-16T04:45:44.042Z,92592.34
2022-11-16T04:46:45.485Z,92588.13
2022-11-16T04:47:48.611Z,92590.94
2022-11-16T04:48:51.380Z,92599.78
2022-11-16T04:49:52.799Z,92599.63
2022-11-16T04:50:54.198Z,92595.94
2022-11-16T04:51:55.629Z,92598.00
2022-11-16T04:52:57.136Z,92598.41
2022-11-16T04:53:58.585Z,92604.31
2022-11-16T04:55:00.045Z,92608.09
2022-11-16T04:56:01.496Z,92607.88
2022-11-16T04:57:02.991Z,92610.50
2022-11-16T04:58:04.737Z,92604.88
2022-11-16T04:59:06.166Z,92606.03
2022-11-16T05:00:08.824Z,92604.06
2022-11-16T05:01:10.342Z,92601.22
2022-11-16T05:02:11.843Z,92598.97
2022-11-16T05:03:13.256Z,92601.88
2022-11-16T05:04:16.041Z,92591.56
2022-11-16T05:05:17.794Z,92595.78
2022-11-16T05:06:19.241Z,92588.91
2022-11-16T05:07:20.765Z,92593.13
2022-11-16T05:08:22.267Z,92589.66
2022-11-16T05:09:23.707Z,92590.16
2022-11-16T05:10:25.289Z,92589.72
2022-11-16T05:11:26.749Z,92581.38
2022-11-16T05:12:28.551Z,92584.69
2022-11-16T05:13:29.981Z,92582.22
2022-11-16T05:14:31.395Z,92580.19
2022-11-16T05:15:32.833Z,92576.94
2022-11-16T05:16:34.244Z,92581.03
2022-11-16T05:17:35.719Z,92585.66
2022-11-16T05:18:37.242Z,92578.34
2022-11-16T05:19:40.287Z,92581.25
2022-11-16T05:20:42.102Z,92575.97
2022-11-16T05:21:43.560Z,92580.16
2022-11-16T05:22:45.082Z,92577.06
2022-11-16T05:23:46.590Z,92579.09
2022-11-16T05:24:48.187Z,92583.03
2022-11-16T05:25:49.628Z,92584.97
2022-11-16T05:26:51.050Z,92581.47
2022-11-16T05:27:52.521Z,92583.72
2022-11-16T05:28:53.996Z,92578.53
2022-11-16T05:29:55.787Z,92589.78
2022-11-16T05:30:57.293Z,92582.88
2022-11-16T05:31:59.045Z,92578.09
2022-11-16T05:33:00.456Z,92581.56
2022-11-16T05:34:01.867Z,92582.16
2022-11-16T05:35:05.163Z,92589.25
2022-11-16T05:36:07.676Z,92587.75
2022-11-16T05:37:09.722Z,92587.78
2022-11-16T05:38:11.115Z,92589.81
2022-11-16T05:39:12.787Z,92583.53
2022-11-16T05:40:14.909Z,92588.59
2022-11-16T05:41:16.331Z,92589.88
2022-11-16T05:42:17.849Z,92591.88
2022-11-16T05:43:19.289Z,92589.63
2022-11-16T05:44:20.756Z,92590.66
2022-11-16T05:45:22.208Z,92597.97
2022-11-16T05:46:24.302Z,92597.50
2022-11-16T05:47:25.725Z,92593.53
2022-11-16T05:48:27.154Z,92590.91
2022-11-16T05:49:28.599Z,92591.84
2022-11-16T05:50:31.423Z,92594.47
2022-11-16T05:51:32.865Z,92594.25
2022-11-16T05:52:34.293Z,92590.28
2022-11-16T05:53:35.732Z,92597.69
2022-11-16T05:54:37.155Z,92584.75
2022-11-16T05:55:39.076Z,92590.19
2022-11-16T05:56:40.648Z,92585.09
2022-11-16T05:57:42.134Z,92588.94
2022-11-16T05:58:43.676Z,92592.81
2022-11-16T05:59:45.095Z,92591.56
2022-11-16T06:00:46.794Z,92585.91
2022-11-16T06:01:48.953Z,92591.94
2022-11-16T06:02:50.410Z,92591.34
2022-11-16T06:03:51.985Z,92594.38
2022-11-16T06:04:53.417Z,92593.53
2022-11-16T06:05:56.594Z,92589.53
2022-11-16T06:06:58.054Z,92597.59
2022-11-16T06:07:59.469Z,92601.47
2022-11-16T06:09:00.934Z,92599.59
2022-11-16T06:10:02.419Z,92599.38
2022-11-16T06:11:05.741Z,92598.19
2022-11-16T06:12:07.373Z,92598.38
2022-11-16T06:13:08.777Z,92595.94
2022-11-16T06:14:10.187Z,92600.00
2022-11-16T06:15:11.615Z,92608.06
2022-11-16T06:16:13.418Z,92607.88
2022-11-16T06:17:14.838Z,92605.84
2022-11-16T06:18:16.265Z,92604.50
2022-11-16T06:19:17.696Z,92603.50
2022-11-16T06:20:19.199Z,92596.22
2022-11-16T06:21:21.993Z,92606.72
2022-11-16T06:22:23.549Z,92602.28
2022-11-16T06:23:36.399Z,92605.28
2022-11-16T06:24:38.028Z,92599.22
2022-11-16T06:25:40.431Z,92602.94
2022-11-16T06:26:41.965Z,92605.91
2022-11-16T06:27:43.464Z,92608.75
2022-11-16T06:28:44.929Z,92605.38
2022-11-16T06:29:46.365Z,92612.75
2022-11-16T06:30:48.653Z,92604.53
2022-11-16T06:31:50.133Z,92600.88
2022-11-16T06:32:51.630Z,92601.63
2022-11-16T06:33:53.050Z,92603.47
2022-11-16T06:34:54.457Z,92599.84
2022-11-16T06:35:55.912Z,92592.19
2022-11-16T06:36:58.651Z,92595.00
2022-11-16T06:38:00.114Z,92599.66
2022-11-16T06:39:01.870Z,92600.06
2022-11-16T06:40:03.909Z,92606.34
2022-11-16T06:41:05.421Z,92602.91
2022-11-16T06:42:06.829Z,92603.13
2022-11-16T06:43:08.272Z,92604.91
2022-11-16T06:44:09.939Z,92600.88
2022-11-16T06:45:11.381Z,92613.19
2022-11-16T06:46:12.845Z,92609.31
2022-11-16T06:47:14.519Z,92605.00
2022-11-16T06:48:16.056Z,92601.16
2022-11-16T06:49:17.468Z,92592.38
2022-11-16T06:50:19.160Z,92604.53
2022-11-16T06:51:20.698Z,92605.63
2022-11-16T06:52:23.476Z,92613.56
2022-11-16T06:53:29.201Z,92619.00
2022-11-16T06:54:30.907Z,92600.81
2022-11-16T06:55:32.354Z,92606.31
2022-11-16T06:56:34.392Z,92610.47
2022-11-16T06:57:35.847Z,92607.88
2022-11-16T06:58:37.652Z,92612.94
2022-11-16T06:59:39.341Z,92609.91
2022-11-16T07:00:40.951Z,92618.34
2022-11-16T07:01:42.512Z,92612.22
2022-11-16T07:02:44.063Z,92621.38
2022-11-16T07:03:45.528Z,92616.91
2022-11-16T07:04:46.947Z,92620.66
2022-11-16T07:05:48.356Z,92616.38
2022-11-16T07:06:49.838Z,92615.63
2022-11-16T07:07:55.018Z,92618.63
2022-11-16T07:08:56.471Z,92620.69
2022-11-16T07:09:58.084Z,92628.56
2022-11-16T07:11:04.284Z,92629.97
2022-11-16T07:12:06.293Z,92634.22
2022-11-16T07:13:07.756Z,92631.38
2022-11-16T07:14:09.245Z,92626.13
2022-11-16T07:15:11.741Z,92634.00
2022-11-16T07:16:13.165Z,92637.72
2022-11-16T07:17:14.607Z,92636.25
2022-11-16T07:18:16.014Z,92631.22
2022-11-16T07:19:17.458Z,92644.53
2022-11-16T07:20:18.930Z,92640.09
2022-11-16T07:21:20.375Z,92641.91
2022-11-16T07:22:21.834Z,92645.16
2022-11-16T07:23:24.605Z,92638.44
2022-11-16T07:24:26.087Z,92643.13
2022-11-16T07:25:27.642Z,92647.75
2022-11-16T07:26:29.105Z,92650.59
2022-11-16T07:27:30.653Z,92651.22
2022-11-16T07:28:32.963Z,92650.56
2022-11-16T07:29:34.765Z,92651.19
2022-11-16T07:30:36.171Z,92647.81
2022-11-16T07:31:37.760Z,92641.94
2022-11-16T07:32:39.200Z,92648.97
2022-11-16T07:33:40.673Z,92643.53
2022-11-16T07:34:42.123Z,92652.81
2022-11-16T07:35:43.592Z,92654.19
2022-11-16T07:36:45.024Z,92656.63
2022-11-16T07:37:46.428Z,92660.44
2022-11-16T07:38:49.163Z,92660.69
2022-11-16T07:39:50.566Z,92664.22
2022-11-16T07:40:51.993Z,92659.84
2022-11-16T07:41:53.429Z,92660.88
2022-11-16T07:42:57.286Z,92670.59
2022-11-16T07:43:59.010Z,92668.03
2022-11-16T07:45:00.444Z,92664.78
2022-11-16T07:46:28.281Z,92675.84
2022-11-16T07:47:24.087Z,92671.38
2022-11-16T07:48:25.545Z,92672.97
2022-11-16T07:49:26.980Z,92678.91
2022-11-16T07:50:28.505Z,92670.25
2022-11-16T07:51:31.547Z,92672.81
2022-11-16T07:52:33.067Z,92677.00
2022-11-16T07:53:35.353Z,92674.78
2022-11-16T07:54:38.166Z,92680.66
2022-11-16T07:55:40.007Z,92672.91
2022-11-16T07:56:42.059Z,92686.47
2022-11-16T07:57:43.564Z,92678.69
2022-11-16T07:58:45.034Z,92679.13
2022-11-16T07:59:46.527Z,92680.34
2022-11-16T08:00:48.303Z,92686.41
2022-11-16T08:01:49.798Z,92685.38
2022-11-16T08:02:51.270Z,92681.00
2022-11-16T08:03:54.014Z,92690.50
2022-11-16T08:04:55.481Z,92683.03
2022-11-16T08:05:59.841Z,92687.69
2022-11-16T08:07:01.356Z,92689.88
2022-11-16T08:08:02.852Z,92690.91
2022-11-16T08:09:04.420Z,92682.84
2022-11-16T08:10:08.395Z,92684.66
2022-11-16T08:11:11.573Z,92680.59
2022-11-16T08:12:13.059Z,92683.44
2022-11-16T08:13:14.536Z,92676.97
2022-11-16T08:14:15.969Z,92686.88
2022-11-16T08:15:17.424Z,92681.19
2022-11-16T08:16:20.636Z,92685.22
2022-11-16T08:17:22.045Z,92683.13
2022-11-16T08:18:23.449Z,92685.69
2022-11-16T08:19:24.892Z,92678.66
2022-11-16T08:20:26.331Z,92683.53
2022-11-16T08:21:27.792Z,92688.81
2022-11-16T08:22:29.313Z,92686.16
2022-11-16T08:23:31.846Z,92689.78
2022-11-16T08:24:33.372Z,92689.00
2022-11-16T08:25:36.161Z,92687.56
2022-11-16T08:26:37.609Z,92690.00
2022-11-16T08:27:39.139Z,92692.44
2022-11-16T08:28:41.489Z,92685.34
2022-11-16T08:29:43.057Z,92690.09
2022-11-16T08:30:48.379Z,92695.25
2022-11-16T08:31:52.489Z,92690.66
2022-11-16T08:32:53.935Z,92691.91
2022-11-16T08:33:55.587Z,92690.63
2022-11-16T08:34:57.121Z,92692.06
2022-11-16T08:36:03.485Z,92696.25
2022-11-16T08:37:04.934Z,92697.63
2022-11-16T08:38:06.336Z,92695.84
2022-11-16T08:39:07.945Z,92695.88
2022-11-16T08:40:10.675Z,92695.47
2022-11-16T08:41:14.148Z,92698.41
2022-11-16T08:42:15.601Z,92689.06
2022-11-16T08:43:17.018Z,92692.06
2022-11-16T08:44:19.267Z,92700.00
2022-11-16T08:45:20.712Z,92696.91
2022-11-16T08:46:22.141Z,92699.16
2022-11-16T08:47:23.591Z,92697.28
2022-11-16T08:48:25.135Z,92696.31
2022-11-16T08:49:27.162Z,92698.09
2022-11-16T08:50:28.587Z,92702.19
2022-11-16T08:51:30.038Z,92693.53
2022-11-16T08:52:31.442Z,92697.66
2022-11-16T08:53:33.026Z,92689.56
2022-11-16T08:54:34.496Z,92692.28
2022-11-16T08:55:36.141Z,92695.03
2022-11-16T08:56:38.950Z,92691.31
2022-11-16T08:57:40.425Z,92693.13
2022-11-16T08:58:42.657Z,92695.44
2022-11-16T08:59:44.110Z,92691.31
2022-11-16T09:00:45.620Z,92697.56
2022-11-16T09:01:47.109Z,92695.22
2022-11-16T09:02:48.653Z,92697.66
2022-11-16T09:03:50.099Z,92698.75
2022-11-16T09:04:51.762Z,92703.34
2022-11-16T09:05:53.203Z,92698.91
2022-11-16T09:06:54.736Z,92702.00
2022-11-16T09:07:56.358Z,92701.47
2022-11-16T09:08:57.872Z,92710.00
2022-11-16T09:09:59.313Z,92702.75
2022-11-16T09:11:04.149Z,92702.66
2022-11-16T09:12:07.172Z,92699.31
2022-11-16T09:13:08.613Z,92704.44
2022-11-16T09:14:10.062Z,92706.75
2022-11-16T09:15:11.775Z,92701.19
2022-11-16T09:16:13.750Z,92701.84
2022-11-16T09:17:20.213Z,92703.09
2022-11-16T09:18:24.818Z,92707.72
2022-11-16T09:19:26.280Z,92703.09
2022-11-16T09:20:27.688Z,92707.09
2022-11-16T09:21:30.117Z,92709.53
2022-11-16T09:22:31.572Z,92710.78
2022-11-16T09:23:33.048Z,92705.59
2022-11-16T09:24:34.506Z,92701.13
2022-11-16T09:25:35.940Z,92706.25
2022-11-16T09:26:37.385Z,92702.34
2022-11-16T09:27:40.167Z,92705.75
2022-11-16T09:28:41.680Z,92700.22
2022-11-16T09:29:43.160Z,92704.97
2022-11-16T09:30:46.178Z,92703.91
2022-11-16T09:31:47.707Z,92710.69
2022-11-16T09:32:49.130Z,92705.25
2022-11-16T09:33:50.888Z,92704.50
2022-11-16T09:34:52.315Z,92700.66
2022-11-16T09:35:53.728Z,92700.50
2022-11-16T09:36:55.145Z,92701.91
2022-11-16T09:37:56.656Z,92698.72
2022-11-16T09:40:20.509Z,92708.22
2022-11-16T09:41:48.823Z,92707.41
2022-11-16T09:43:04.266Z,92704.38
2022-11-16T09:44:16.876Z,92701.50
2022-11-16T09:45:24.621Z,92700.91
2022-11-16T09:46:31.520Z,92702.66
2022-11-16T09:47:40.809Z,92697.59
2022-11-16T09:48:42.330Z,92697.50
2022-11-16T09:49:48.788Z,92704.72
2022-11-16T09:50:53.950Z,92704.09
2022-11-16T09:52:00.313Z,92698.25
2022-11-16T09:53:13.950Z,92697.84
2022-11-16T09:54:20.484Z,92703.38
2022-11-16T09:55:26.209Z,92702.66
2022-11-16T09:56:31.366Z,92706.19
2022-11-16T09:57:37.064Z,92707.34
2022-11-16T09:58:46.071Z,92707.84
2022-11-16T09:59:49.526Z,92702.06
2022-11-16T10:00:56.557Z,92695.56
2022-11-16T10:02:01.592Z,92698.47
2022-11-16T10:03:06.361Z,92706.97
2022-11-16T10:04:13.370Z,92703.72
2022-11-16T10:05:19.980Z,92704.81
2022-11-16T10:06:25.917Z,92703.63
2022-11-16T10:07:33.538Z,92709.84
2022-11-16T10:08:42.406Z,92704.09
2022-11-16T10:09:44.944Z,92703.72
2022-11-16T10:10:54.746Z,92708.13
2022-11-16T10:12:14.464Z,92704.97
2022-11-16T10:13:26.934Z,92702.03
2022-11-16T10:15:01.920Z,92710.16
2022-11-16T10:16:08.105Z,92706.81
2022-11-16T10:17:21.815Z,92703.94
2022-11-16T10:18:41.997Z,92704.81
2022-11-16T10:19:53.280Z,92699.50
2022-11-16T10:21:31.787Z,92704.50
2022-11-16T10:22:43.372Z,92709.91
2022-11-16T10:23:59.495Z,92703.59
2022-11-16T10:25:06.506Z,92714.19
2022-11-16T10:26:17.002Z,92707.84
2022-11-16T10:27:34.083Z,92703.78
2022-11-16T10:28:55.817Z,92700.66
2022-11-16T10:30:02.045Z,92696.56
2022-11-16T10:31:13.730Z,92699.09
2022-11-16T10:32:21.387Z,92691.94
2022-11-16T10:33:26.663Z,92698.63
2022-11-16T10:34:34.499Z,92692.59
2022-11-16T10:35:39.268Z,92688.34
2022-11-16T10:36:40.746Z,92688.06
2022-11-16T10:37:47.459Z,92681.66
2022-11-16T10:38:48.978Z,92683.22
2022-11-16T10:39:52.073Z,92685.25
2022-11-16T10:40:57.477Z,92671.59
2022-11-16T10:42:07.219Z,92679.75
2022-11-16T10:43:13.694Z,92675.56
2022-11-16T10:44:21.483Z,92671.69
2022-11-16T10:45:28.564Z,92675.66
2022-11-16T10:46:36.461Z,92672.13
2022-11-16T10:47:42.373Z,92674.38
2022-11-16T10:48:54.025Z,92675.06
2022-11-16T10:49:59.022Z,92668.91
2022-11-16T10:51:01.465Z,92669.50
2022-11-16T10:52:03.009Z,92677.41
2022-11-16T10:53:04.524Z,92680.41
2022-11-16T10:54:12.248Z,92675.28
2022-11-16T10:55:15.345Z,92681.50
2022-11-16T10:56:21.705Z,92679.88
2022-11-16T10:57:23.157Z,92676.75
2022-11-16T10:58:24.615Z,92677.59
2022-11-16T10:59:39.087Z,92672.16
2022-11-16T11:00:45.802Z,92674.34
2022-11-16T11:01:49.901Z,92676.53
2022-11-16T11:02:51.425Z,92672.22
2022-11-16T11:03:52.843Z,92667.81
2022-11-16T11:05:07.097Z,92670.13
2022-11-16T11:06:11.283Z,92662.81
2022-11-16T11:07:23.637Z,92662.56
2022-11-16T11:08:27.572Z,92655.88
2022-11-16T11:09:31.106Z,92668.56
2022-11-16T11:10:34.074Z,92670.13
2022-11-16T11:11:35.510Z,92667.56
2022-11-16T11:12:36.939Z,92667.84
2022-11-16T11:13:38.420Z,92664.75
2022-11-16T11:14:39.857Z,92662.41
2022-11-16T11:15:42.929Z,92663.06
2022-11-16T11:16:44.360Z,92661.84
2022-11-16T11:17:48.876Z,92662.03
2022-11-16T11:18:50.290Z,92665.06
2022-11-16T11:19:57.739Z,92663.13
2022-11-16T11:21:12.056Z,92662.75
2022-11-16T11:22:14.580Z,92663.44
2022-11-16T11:23:18.591Z,92664.66
2022-11-16T11:25:50.113Z,92656.97
2022-11-16T11:26:53.842Z,92648.66
2022-11-16T11:28:05.152Z,92651.81
2022-11-16T11:29:20.533Z,92651.09
2022-11-16T11:30:22.515Z,92651.72
2022-11-16T11:31:32.016Z,92648.34
2022-11-16T11:32:39.157Z,92652.97
2022-11-16T11:33:49.033Z,92655.47
2022-11-16T11:34:52.862Z,92656.69
2022-11-16T11:36:02.159Z,92652.44
2022-11-16T11:37:06.491Z,92651.03
2022-11-16T11:38:15.158Z,92656.72
2022-11-16T11:39:29.919Z,92654.63
2022-11-16T11:40:31.763Z,92653.13
2022-11-16T11:41:35.617Z,92646.38
2022-11-16T11:42:50.961Z,92645.66
2022-11-16T11:44:01.359Z,92650.63
2022-11-16T11:45:08.775Z,92640.75
2022-11-16T11:46:16.212Z,92637.91
2022-11-16T11:48:00.479Z,92644.22
2022-11-16T11:49:00.082Z,92646.84
2022-11-16T11:50:10.300Z,92646.16
2022-11-16T11:51:19.207Z,92643.72
2022-11-16T11:52:25.468Z,92641.19
2022-11-16T11:53:53.544Z,92647.16
2022-11-16T11:54:55.806Z,92649.34
2022-11-16T11:55:58.563Z,92648.00
2022-11-16T11:57:03.025Z,92638.94
2022-11-16T11:58:07.300Z,92639.59
2022-11-16T11:59:13.157Z,92642.38
2022-11-16T12:00:15.690Z,92644.50
2022-11-16T12:01:53.611Z,92645.91
2022-11-16T12:03:13.240Z,92649.59
2022-11-16T12:04:41.348Z,92651.19
2022-11-16T12:06:10.969Z,92647.25
2022-11-16T12:07:22.598Z,92648.84
2022-11-16T12:08:40.882Z,92645.22
2022-11-16T12:09:47.473Z,92649.94
2022-11-16T12:10:52.497Z,92647.31
2022-11-16T12:12:04.104Z,92648.22
2022-11-16T12:13:22.024Z,92650.53
2022-11-16T12:14:37.216Z,92649.13
2022-11-16T12:15:51.654Z,92640.63
2022-11-16T12:17:00.071Z,92646.16
2022-11-16T12:18:17.144Z,92639.94
2022-11-16T12:19:40.831Z,92637.03
2022-11-16T12:20:52.250Z,92638.44
2022-11-16T12:22:00.367Z,92647.41
2022-11-16T12:23:17.107Z,92641.88
2022-11-16T12:24:35.373Z,92648.78
2022-11-16T12:25:43.404Z,92639.38
2022-11-16T12:26:58.578Z,92638.00
2022-11-16T12:28:16.950Z,92632.75
2022-11-16T12:29:24.834Z,92639.22
2022-11-16T12:30:26.598Z,92628.97
2022-11-16T12:31:55.213Z,92629.31
2022-11-16T12:33:10.176Z,92633.06
2022-11-16T12:34:22.930Z,92627.44
2022-11-16T12:35:40.110Z,92626.56
2022-11-16T12:36:51.215Z,92629.78
2022-11-16T12:38:01.989Z,92624.63
2022-11-16T12:39:20.538Z,92620.97
2022-11-16T12:40:35.741Z,92626.50